Saylorsburg, Pennsylvania
Current Conditions -  °F | °C
As of 10:53 AM on Saturday 25 Oct 2014 (Local Time) from KMPO Reporting Station
Overcast Overcast  
Wind Chill: 53°   Ceiling: 3700
Heat Index: 53°   Visibility: 10mi
Dew Point: 38°   Wind: 12mph
Humidity: 57%   Direction: 280°W
Pressure: 29.84"   Gusts: 17mph
Location:  40.9°N, 75.32°W
Report Text: KMPO 251453Z AUTO 28010G15KT 10SM OVC037 12/03 A2984 RMK AO2 SLP108 T01170033 58009
Loading
Personal Weather Stations






























Interactive Weather Map
Tropical Storm Tracking
New forecast layout! Learn more

10-Day Weather Forecast

Advertisements
Track Severe Weather on mobile